sensor_id;sensor_type;location;lat;lon;timestamp;pressure;altitude;pressure_sealevel;temperature;humidity
9289;BME280;4683;50.864;12.086;2023-07-31T00:00:22;98890.00;;;17.34;100.00
9289;BME280;4683;50.864;12.086;2023-07-31T00:02:52;98885.50;;;17.34;100.00
9289;BME280;4683;50.864;12.086;2023-07-31T00:05:21;98879.94;;;17.36;100.00
9289;BME280;4683;50.864;12.086;2023-07-31T00:07:51;98880.28;;;17.39;100.00
9289;BME280;4683;50.864;12.086;2023-07-31T00:10:21;98880.53;;;17.38;100.00
9289;BME280;4683;50.864;12.086;2023-07-31T00:12:50;98877.75;;;17.44;100.00
9289;BME280;4683;50.864;12.086;2023-07-31T00:15:18;98873.81;;;17.47;100.00
9289;BME280;4683;50.864;12.086;2023-07-31T00:17:47;98874.28;;;17.56;100.00
9289;BME280;4683;50.864;12.086;2023-07-31T00:20:15;98875.69;;;17.70;100.00
9289;BME280;4683;50.864;12.086;2023-07-31T00:22:44;98870.28;;;17.88;100.00
9289;BME280;4683;50.864;12.086;2023-07-31T00:25:14;98869.31;;;18.06;100.00
9289;BME280;4683;50.864;12.086;2023-07-31T00:27:42;98863.50;;;18.21;100.00
9289;BME280;4683;50.864;12.086;2023-07-31T00:30:12;98866.63;;;18.30;100.00
9289;BME280;4683;50.864;12.086;2023-07-31T00:32:41;98855.31;;;18.39;100.00
9289;BME280;4683;50.864;12.086;2023-07-31T00:35:09;98871.34;;;18.39;100.00
9289;BME280;4683;50.864;12.086;2023-07-31T00:37:38;98864.28;;;18.33;100.00
9289;BME280;4683;50.864;12.086;2023-07-31T00:40:08;98848.97;;;18.40;100.00
9289;BME280;4683;50.864;12.086;2023-07-31T00:42:37;98853.44;;;18.51;100.00
9289;BME280;4683;50.864;12.086;2023-07-31T00:45:09;98849.25;;;18.56;100.00
9289;BME280;4683;50.864;12.086;2023-07-31T00:47:38;98846.59;;;18.56;100.00
9289;BME280;4683;50.864;12.086;2023-07-31T00:50:08;98844.00;;;18.61;100.00
9289;BME280;4683;50.864;12.086;2023-07-31T00:52:36;98844.34;;;18.64;100.00
9289;BME280;4683;50.864;12.086;2023-07-31T00:55:06;98848.41;;;18.67;100.00
9289;BME280;4683;50.864;12.086;2023-07-31T00:57:38;98841.78;;;18.69;100.00
9289;BME280;4683;50.864;12.086;2023-07-31T01:00:10;98844.00;;;18.72;100.00
9289;BME280;4683;50.864;12.086;2023-07-31T01:02:39;98848.03;;;18.75;100.00
9289;BME280;4683;50.864;12.086;2023-07-31T01:05:09;98845.53;;;18.57;100.00
9289;BME280;4683;50.864;12.086;2023-07-31T01:07:45;98848.38;;;18.38;100.00
9289;BME280;4683;50.864;12.086;2023-07-31T01:10:21;98851.91;;;18.15;100.00
9289;BME280;4683;50.864;12.086;2023-07-31T01:12:54;98845.31;;;18.06;100.00
9289;BME280;4683;50.864;12.086;2023-07-31T01:15:25;98848.78;;;18.07;100.00
9289;BME280;4683;50.864;12.086;2023-07-31T01:17:53;98846.47;;;17.98;100.00
9289;BME280;4683;50.864;12.086;2023-07-31T01:20:23;98859.69;;;17.93;100.00
9289;BME280;4683;50.864;12.086;2023-07-31T01:23:41;98852.63;;;17.75;100.00
9289;BME280;4683;50.864;12.086;2023-07-31T01:26:23;98846.84;;;17.79;100.00
9289;BME280;4683;50.864;12.086;2023-07-31T01:29:00;98846.25;;;17.88;100.00
9289;BME280;4683;50.864;12.086;2023-07-31T01:31:30;98837.09;;;17.84;100.00
9289;BME280;4683;50.864;12.086;2023-07-31T01:34:01;98839.44;;;17.81;100.00
9289;BME280;4683;50.864;12.086;2023-07-31T01:36:31;98834.41;;;17.84;100.00
9289;BME280;4683;50.864;12.086;2023-07-31T01:39:00;98828.16;;;17.79;100.00
9289;BME280;4683;50.864;12.086;2023-07-31T01:41:30;98831.63;;;17.67;100.00
9289;BME280;4683;50.864;12.086;2023-07-31T01:43:58;98826.19;;;17.62;100.00
9289;BME280;4683;50.864;12.086;2023-07-31T01:46:29;98824.75;;;17.48;100.00
9289;BME280;4683;50.864;12.086;2023-07-31T01:48:57;98820.72;;;17.45;100.00
9289;BME280;4683;50.864;12.086;2023-07-31T01:51:26;98814.22;;;17.41;100.00
9289;BME280;4683;50.864;12.086;2023-07-31T01:53:54;98808.53;;;17.38;100.00
9289;BME280;4683;50.864;12.086;2023-07-31T01:56:23;98800.53;;;17.38;100.00
9289;BME280;4683;50.864;12.086;2023-07-31T01:58:53;98796.09;;;17.20;100.00
9289;BME280;4683;50.864;12.086;2023-07-31T02:01:21;98787.25;;;17.08;100.00
9289;BME280;4683;50.864;12.086;2023-07-31T02:03:50;98779.13;;;16.91;100.00
9289;BME280;4683;50.864;12.086;2023-07-31T02:06:19;98774.75;;;16.96;100.00
9289;BME280;4683;50.864;12.086;2023-07-31T02:08:47;98771.16;;;16.91;100.00
9289;BME280;4683;50.864;12.086;2023-07-31T02:11:15;98764.16;;;16.78;100.00
9289;BME280;4683;50.864;12.086;2023-07-31T02:13:43;98756.28;;;16.83;100.00
9289;BME280;4683;50.864;12.086;2023-07-31T02:16:13;98751.09;;;16.77;100.00
9289;BME280;4683;50.864;12.086;2023-07-31T02:18:42;98748.41;;;16.88;100.00
9289;BME280;4683;50.864;12.086;2023-07-31T02:21:10;98751.59;;;17.09;100.00
9289;BME280;4683;50.864;12.086;2023-07-31T02:23:38;98756.09;;;16.96;100.00
9289;BME280;4683;50.864;12.086;2023-07-31T02:26:06;98753.75;;;16.88;100.00
9289;BME280;4683;50.864;12.086;2023-07-31T02:28:35;98744.16;;;16.87;100.00
9289;BME280;4683;50.864;12.086;2023-07-31T02:31:04;98743.09;;;16.77;100.00
9289;BME280;4683;50.864;12.086;2023-07-31T02:33:34;98734.94;;;16.71;100.00
9289;BME280;4683;50.864;12.086;2023-07-31T02:36:02;98743.91;;;16.77;100.00
9289;BME280;4683;50.864;12.086;2023-07-31T02:38:31;98739.38;;;16.78;100.00
9289;BME280;4683;50.864;12.086;2023-07-31T02:40:59;98740.66;;;16.87;100.00
9289;BME280;4683;50.864;12.086;2023-07-31T02:43:27;98743.91;;;16.77;100.00
9289;BME280;4683;50.864;12.086;2023-07-31T02:45:57;98736.72;;;16.78;100.00
9289;BME280;4683;50.864;12.086;2023-07-31T02:48:25;98737.00;;;16.69;100.00
9289;BME280;4683;50.864;12.086;2023-07-31T02:50:57;98738.97;;;16.62;100.00
9289;BME280;4683;50.864;12.086;2023-07-31T02:53:26;98734.34;;;16.69;100.00
9289;BME280;4683;50.864;12.086;2023-07-31T02:55:54;98732.91;;;16.55;100.00
9289;BME280;4683;50.864;12.086;2023-07-31T02:58:22;98733.16;;;16.54;100.00
9289;BME280;4683;50.864;12.086;2023-07-31T03:00:50;98735.22;;;16.52;100.00
9289;BME280;4683;50.864;12.086;2023-07-31T03:03:18;98740.41;;;16.46;100.00
9289;BME280;4683;50.864;12.086;2023-07-31T03:05:46;98733.78;;;16.37;100.00
9289;BME280;4683;50.864;12.086;2023-07-31T03:08:16;98733.00;;;16.48;100.00
9289;BME280;4683;50.864;12.086;2023-07-31T03:10:44;98737.03;;;16.39;100.00
9289;BME280;4683;50.864;12.086;2023-07-31T03:13:12;98739.38;;;16.47;100.00
9289;BME280;4683;50.864;12.086;2023-07-31T03:15:42;98731.00;;;16.44;100.00
9289;BME280;4683;50.864;12.086;2023-07-31T03:18:11;98737.38;;;16.31;100.00
9289;BME280;4683;50.864;12.086;2023-07-31T03:20:42;98718.06;;;16.36;100.00
9289;BME280;4683;50.864;12.086;2023-07-31T03:23:11;98714.59;;;16.35;100.00
9289;BME280;4683;50.864;12.086;2023-07-31T03:25:56;98717.56;;;16.27;100.00
9289;BME280;4683;50.864;12.086;2023-07-31T03:28:25;98719.47;;;16.20;100.00
9289;BME280;4683;50.864;12.086;2023-07-31T03:30:53;98719.13;;;16.16;100.00
9289;BME280;4683;50.864;12.086;2023-07-31T03:33:22;98714.41;;;16.30;100.00
9289;BME280;4683;50.864;12.086;2023-07-31T03:35:50;98713.16;;;16.33;100.00
9289;BME280;4683;50.864;12.086;2023-07-31T03:38:18;98716.63;;;16.21;100.00
9289;BME280;4683;50.864;12.086;2023-07-31T03:40:48;98715.03;;;16.32;100.00
9289;BME280;4683;50.864;12.086;2023-07-31T03:43:16;98711.19;;;16.28;100.00
9289;BME280;4683;50.864;12.086;2023-07-31T03:45:44;98708.97;;;16.25;100.00
9289;BME280;4683;50.864;12.086;2023-07-31T03:48:13;98709.69;;;16.32;100.00
9289;BME280;4683;50.864;12.086;2023-07-31T03:50:42;98700.09;;;16.31;100.00
9289;BME280;4683;50.864;12.086;2023-07-31T03:53:11;98711.50;;;16.20;100.00
9289;BME280;4683;50.864;12.086;2023-07-31T03:55:40;98704.13;;;16.22;100.00
9289;BME280;4683;50.864;12.086;2023-07-31T03:58:11;98700.03;;;16.19;100.00
9289;BME280;4683;50.864;12.086;2023-07-31T04:00:40;98703.19;;;16.28;100.00
9289;BME280;4683;50.864;12.086;2023-07-31T04:03:09;98699.97;;;16.26;100.00
9289;BME280;4683;50.864;12.086;2023-07-31T04:05:38;98699.38;;;16.24;100.00
9289;BME280;4683;50.864;12.086;2023-07-31T04:08:08;98703.19;;;16.28;100.00
9289;BME280;4683;50.864;12.086;2023-07-31T04:10:36;98692.09;;;16.31;100.00
9289;BME280;4683;50.864;12.086;2023-07-31T04:13:04;98695.97;;;16.47;100.00
9289;BME280;4683;50.864;12.086;2023-07-31T04:15:37;98699.13;;;16.56;100.00
9289;BME280;4683;50.864;12.086;2023-07-31T04:18:05;98699.31;;;16.42;100.00
9289;BME280;4683;50.864;12.086;2023-07-31T04:20:33;98690.28;;;16.43;100.00
9289;BME280;4683;50.864;12.086;2023-07-31T04:23:01;98692.38;;;16.53;100.00
9289;BME280;4683;50.864;12.086;2023-07-31T04:25:29;98687.19;;;16.58;100.00
9289;BME280;4683;50.864;12.086;2023-07-31T04:27:59;98684.53;;;16.70;100.00
9289;BME280;4683;50.864;12.086;2023-07-31T04:30:27;98683.63;;;16.64;100.00
9289;BME280;4683;50.864;12.086;2023-07-31T04:32:57;98678.00;;;16.72;100.00
9289;BME280;4683;50.864;12.086;2023-07-31T04:35:26;98680.41;;;16.74;100.00
9289;BME280;4683;50.864;12.086;2023-07-31T04:37:54;98680.66;;;16.84;100.00
9289;BME280;4683;50.864;12.086;2023-07-31T04:40:23;98686.81;;;16.96;100.00
9289;BME280;4683;50.864;12.086;2023-07-31T04:42:51;98692.03;;;16.91;100.00
9289;BME280;4683;50.864;12.086;2023-07-31T04:45:20;98679.03;;;16.83;100.00
9289;BME280;4683;50.864;12.086;2023-07-31T04:47:49;98675.44;;;16.78;100.00
9289;BME280;4683;50.864;12.086;2023-07-31T04:50:19;98681.00;;;16.88;100.00
9289;BME280;4683;50.864;12.086;2023-07-31T04:52:48;98680.19;;;16.87;100.00
9289;BME280;4683;50.864;12.086;2023-07-31T04:55:16;98682.97;;;16.92;100.00
9289;BME280;4683;50.864;12.086;2023-07-31T04:57:45;98676.84;;;16.92;100.00
9289;BME280;4683;50.864;12.086;2023-07-31T05:00:13;98679.84;;;17.07;100.00
9289;BME280;4683;50.864;12.086;2023-07-31T05:02:42;98694.47;;;17.05;100.00
9289;BME280;4683;50.864;12.086;2023-07-31T05:05:10;98684.50;;;17.00;100.00
9289;BME280;4683;50.864;12.086;2023-07-31T05:07:40;98677.41;;;17.06;100.00
9289;BME280;4683;50.864;12.086;2023-07-31T05:10:09;98685.88;;;17.03;100.00
9289;BME280;4683;50.864;12.086;2023-07-31T05:12:38;98692.13;;;16.96;100.00
9289;BME280;4683;50.864;12.086;2023-07-31T05:15:08;98694.47;;;17.05;100.00
9289;BME280;4683;50.864;12.086;2023-07-31T05:17:37;98679.03;;;16.83;100.00
9289;BME280;4683;50.864;12.086;2023-07-31T05:20:07;98678.59;;;16.86;100.00
9289;BME280;4683;50.864;12.086;2023-07-31T05:22:36;98673.69;;;16.83;100.00
9289;BME280;4683;50.864;12.086;2023-07-31T05:25:06;98662.81;;;16.96;100.00
9289;BME280;4683;50.864;12.086;2023-07-31T05:27:36;98663.75;;;17.02;100.00
9289;BME280;4683;50.864;12.086;2023-07-31T05:30:07;98665.16;;;17.05;100.00
9289;BME280;4683;50.864;12.086;2023-07-31T05:32:35;98658.91;;;16.99;100.00
9289;BME280;4683;50.864;12.086;2023-07-31T05:35:05;98664.91;;;17.18;100.00
9289;BME280;4683;50.864;12.086;2023-07-31T05:37:33;98673.81;;;17.12;100.00
9289;BME280;4683;50.864;12.086;2023-07-31T05:40:01;98676.72;;;17.22;100.00
9289;BME280;4683;50.864;12.086;2023-07-31T05:42:32;98681.56;;;17.25;100.00
9289;BME280;4683;50.864;12.086;2023-07-31T05:45:02;98665.81;;;17.35;100.00
9289;BME280;4683;50.864;12.086;2023-07-31T05:47:30;98668.81;;;17.50;100.00
9289;BME280;4683;50.864;12.086;2023-07-31T05:50:01;98672.13;;;17.69;100.00
9289;BME280;4683;50.864;12.086;2023-07-31T05:52:29;98664.31;;;17.91;100.00
9289;BME280;4683;50.864;12.086;2023-07-31T05:54:58;98678.94;;;18.17;100.00
9289;BME280;4683;50.864;12.086;2023-07-31T05:57:26;98677.81;;;18.30;100.00
9289;BME280;4683;50.864;12.086;2023-07-31T06:03:22;98675.84;;;18.09;100.00
9289;BME280;4683;50.864;12.086;2023-07-31T06:05:50;98678.00;;;17.95;100.00
9289;BME280;4683;50.864;12.086;2023-07-31T06:08:19;98679.84;;;17.94;100.00
9289;BME280;4683;50.864;12.086;2023-07-31T06:10:48;98680.69;;;18.12;100.00
9289;BME280;4683;50.864;12.086;2023-07-31T06:13:18;98683.28;;;18.07;100.00
9289;BME280;4683;50.864;12.086;2023-07-31T06:15:47;98677.94;;;18.35;100.00
9289;BME280;4683;50.864;12.086;2023-07-31T06:18:15;98675.69;;;18.61;100.00
9289;BME280;4683;50.864;12.086;2023-07-31T06:20:45;98677.88;;;18.64;100.00
9289;BME280;4683;50.864;12.086;2023-07-31T06:23:14;98684.81;;;18.77;100.00
9289;BME280;4683;50.864;12.086;2023-07-31T06:25:45;98690.88;;;18.72;100.00
9289;BME280;4683;50.864;12.086;2023-07-31T06:28:14;98684.38;;;18.85;100.00
9289;BME280;4683;50.864;12.086;2023-07-31T06:30:42;98696.53;;;18.92;100.00
9289;BME280;4683;50.864;12.086;2023-07-31T06:33:11;98696.53;;;18.75;100.00
9289;BME280;4683;50.864;12.086;2023-07-31T06:35:39;98690.69;;;18.95;100.00
9289;BME280;4683;50.864;12.086;2023-07-31T06:38:09;98695.06;;;19.01;100.00
9289;BME280;4683;50.864;12.086;2023-07-31T06:40:37;98705.13;;;18.94;100.00
9289;BME280;4683;50.864;12.086;2023-07-31T06:43:06;98696.84;;;19.13;100.00
9289;BME280;4683;50.864;12.086;2023-07-31T06:45:36;98691.44;;;19.08;100.00
9289;BME280;4683;50.864;12.086;2023-07-31T06:48:06;98691.00;;;19.16;100.00
9289;BME280;4683;50.864;12.086;2023-07-31T06:50:35;98687.56;;;19.37;100.00
9289;BME280;4683;50.864;12.086;2023-07-31T06:53:03;98694.22;;;19.57;100.00
9289;BME280;4683;50.864;12.086;2023-07-31T06:55:34;98690.09;;;19.66;100.00
9289;BME280;4683;50.864;12.086;2023-07-31T06:58:02;98698.69;;;19.68;100.00
9289;BME280;4683;50.864;12.086;2023-07-31T07:00:31;98699.19;;;19.65;100.00
9289;BME280;4683;50.864;12.086;2023-07-31T07:03:00;98698.19;;;19.71;100.00
9289;BME280;4683;50.864;12.086;2023-07-31T07:05:29;98703.41;;;19.83;100.00
9289;BME280;4683;50.864;12.086;2023-07-31T07:07:57;98706.22;;;19.93;100.00
9289;BME280;4683;50.864;12.086;2023-07-31T07:10:26;98708.28;;;19.64;100.00
9289;BME280;4683;50.864;12.086;2023-07-31T07:12:55;98705.59;;;19.47;100.00
9289;BME280;4683;50.864;12.086;2023-07-31T07:15:23;98708.53;;;19.62;100.00
9289;BME280;4683;50.864;12.086;2023-07-31T07:17:52;98715.97;;;19.60;100.00
9289;BME280;4683;50.864;12.086;2023-07-31T07:20:20;98727.06;;;19.52;100.00
9289;BME280;4683;50.864;12.086;2023-07-31T07:22:49;98732.84;;;19.44;100.00
9289;BME280;4683;50.864;12.086;2023-07-31T07:25:17;98728.53;;;19.60;100.00
9289;BME280;4683;50.864;12.086;2023-07-31T07:27:46;98719.78;;;19.64;100.00
9289;BME280;4683;50.864;12.086;2023-07-31T07:30:15;98723.38;;;19.53;100.00
9289;BME280;4683;50.864;12.086;2023-07-31T07:32:44;98732.56;;;19.40;100.00
9289;BME280;4683;50.864;12.086;2023-07-31T07:35:13;98728.50;;;19.21;100.00
9289;BME280;4683;50.864;12.086;2023-07-31T07:37:41;98729.41;;;19.26;100.00
9289;BME280;4683;50.864;12.086;2023-07-31T07:40:10;98729.09;;;19.23;100.00
9289;BME280;4683;50.864;12.086;2023-07-31T07:42:39;98723.72;;;19.40;100.00
9289;BME280;4683;50.864;12.086;2023-07-31T07:45:08;98728.00;;;19.41;100.00
9289;BME280;4683;50.864;12.086;2023-07-31T07:47:40;98714.97;;;19.44;100.00
9289;BME280;4683;50.864;12.086;2023-07-31T07:50:09;98718.50;;;19.50;100.00
9289;BME280;4683;50.864;12.086;2023-07-31T07:52:37;98712.69;;;19.36;100.00
9289;BME280;4683;50.864;12.086;2023-07-31T07:55:07;98710.63;;;19.43;100.00
9289;BME280;4683;50.864;12.086;2023-07-31T07:57:35;98707.47;;;19.46;100.00
9289;BME280;4683;50.864;12.086;2023-07-31T08:00:05;98706.22;;;19.71;100.00
9289;BME280;4683;50.864;12.086;2023-07-31T08:02:34;98706.47;;;19.52;100.00
9289;BME280;4683;50.864;12.086;2023-07-31T08:05:04;98708.75;;;19.44;100.00
9289;BME280;4683;50.864;12.086;2023-07-31T08:07:33;98708.59;;;19.50;100.00
9289;BME280;4683;50.864;12.086;2023-07-31T08:10:01;98708.34;;;19.52;100.00
9289;BME280;4683;50.864;12.086;2023-07-31T08:12:30;98707.28;;;19.70;100.00
9289;BME280;4683;50.864;12.086;2023-07-31T08:14:59;98706.47;;;19.69;100.00
9289;BME280;4683;50.864;12.086;2023-07-31T08:17:29;98712.69;;;19.75;100.00
9289;BME280;4683;50.864;12.086;2023-07-31T08:19:58;98716.56;;;19.62;100.00
9289;BME280;4683;50.864;12.086;2023-07-31T08:22:28;98710.31;;;19.79;100.00
9289;BME280;4683;50.864;12.086;2023-07-31T08:24:56;98712.69;;;19.97;100.00
9289;BME280;4683;50.864;12.086;2023-07-31T08:27:25;98699.72;;;20.11;100.00
9289;BME280;4683;50.864;12.086;2023-07-31T08:29:54;98708.31;;;20.13;100.00
9289;BME280;4683;50.864;12.086;2023-07-31T08:32:22;98708.25;;;20.57;100.00
9289;BME280;4683;50.864;12.086;2023-07-31T08:34:51;98702.72;;;20.41;100.00
9289;BME280;4683;50.864;12.086;2023-07-31T08:37:20;98703.03;;;20.45;100.00
9289;BME280;4683;50.864;12.086;2023-07-31T08:39:49;98698.94;;;20.37;100.00
9289;BME280;4683;50.864;12.086;2023-07-31T08:42:18;98703.78;;;20.40;100.00
9289;BME280;4683;50.864;12.086;2023-07-31T08:44:47;98703.56;;;20.47;100.00
9289;BME280;4683;50.864;12.086;2023-07-31T08:47:17;98702.38;;;20.60;100.00
9289;BME280;4683;50.864;12.086;2023-07-31T08:49:47;98697.88;;;20.65;100.00
9289;BME280;4683;50.864;12.086;2023-07-31T08:52:15;98703.94;;;20.56;100.00
9289;BME280;4683;50.864;12.086;2023-07-31T08:54:44;98700.59;;;20.70;100.00
9289;BME280;4683;50.864;12.086;2023-07-31T08:57:14;98708.28;;;20.62;100.00
9289;BME280;4683;50.864;12.086;2023-07-31T08:59:44;98697.84;;;20.97;100.00
9289;BME280;4683;50.864;12.086;2023-07-31T09:02:14;98704.81;;;21.31;100.00
9289;BME280;4683;50.864;12.086;2023-07-31T09:04:43;98697.66;;;21.46;100.00
9289;BME280;4683;50.864;12.086;2023-07-31T09:07:13;98696.44;;;21.69;100.00
9289;BME280;4683;50.864;12.086;2023-07-31T09:09:43;98690.25;;;21.69;100.00
9289;BME280;4683;50.864;12.086;2023-07-31T09:12:14;98684.06;;;21.68;100.00
9289;BME280;4683;50.864;12.086;2023-07-31T09:14:43;98699.50;;;21.41;100.00
9289;BME280;4683;50.864;12.086;2023-07-31T09:17:14;98699.56;;;21.51;100.00
9289;BME280;4683;50.864;12.086;2023-07-31T09:19:45;98693.84;;;21.00;100.00
9289;BME280;4683;50.864;12.086;2023-07-31T09:22:13;98694.59;;;20.90;100.00
9289;BME280;4683;50.864;12.086;2023-07-31T09:24:42;98688.25;;;21.07;100.00
9289;BME280;4683;50.864;12.086;2023-07-31T09:27:11;98688.88;;;21.19;100.00
9289;BME280;4683;50.864;12.086;2023-07-31T09:29:42;98694.44;;;21.07;100.00
9289;BME280;4683;50.864;12.086;2023-07-31T09:32:16;98689.78;;;20.92;100.00
9289;BME280;4683;50.864;12.086;2023-07-31T09:34:45;98698.91;;;20.96;100.00
9289;BME280;4683;50.864;12.086;2023-07-31T09:37:13;98680.47;;;20.68;100.00
9289;BME280;4683;50.864;12.086;2023-07-31T09:39:48;98691.63;;;20.55;100.00
9289;BME280;4683;50.864;12.086;2023-07-31T09:42:26;98682.31;;;20.35;100.00
9289;BME280;4683;50.864;12.086;2023-07-31T09:45:08;98677.25;;;20.71;100.00
9289;BME280;4683;50.864;12.086;2023-07-31T09:47:36;98664.56;;;20.93;100.00
9289;BME280;4683;50.864;12.086;2023-07-31T09:50:08;98675.06;;;20.95;100.00
9289;BME280;4683;50.864;12.086;2023-07-31T09:52:40;98674.50;;;20.93;100.00
9289;BME280;4683;50.864;12.086;2023-07-31T09:55:09;98658.66;;;20.91;100.00
9289;BME280;4683;50.864;12.086;2023-07-31T09:57:40;98660.72;;;20.79;100.00
9289;BME280;4683;50.864;12.086;2023-07-31T10:00:13;98661.38;;;20.96;100.00
9289;BME280;4683;50.864;12.086;2023-07-31T10:02:45;98657.16;;;21.11;100.00
9289;BME280;4683;50.864;12.086;2023-07-31T10:05:15;98659.38;;;21.19;100.00
9289;BME280;4683;50.864;12.086;2023-07-31T10:07:54;98656.28;;;21.37;100.00
9289;BME280;4683;50.864;12.086;2023-07-31T10:10:25;98649.97;;;21.69;100.00
9289;BME280;4683;50.864;12.086;2023-07-31T10:12:57;98642.22;;;21.83;100.00
9289;BME280;4683;50.864;12.086;2023-07-31T10:15:28;98645.84;;;22.34;100.00
9289;BME280;4683;50.864;12.086;2023-07-31T10:17:58;98649.88;;;22.52;100.00
9289;BME280;4683;50.864;12.086;2023-07-31T10:20:28;98654.44;;;22.21;100.00
9289;BME280;4683;50.864;12.086;2023-07-31T10:23:01;98652.56;;;22.37;100.00
9289;BME280;4683;50.864;12.086;2023-07-31T10:25:29;98643.72;;;22.26;100.00
9289;BME280;4683;50.864;12.086;2023-07-31T10:27:58;98641.53;;;22.38;100.00
9289;BME280;4683;50.864;12.086;2023-07-31T10:30:30;98642.34;;;22.13;100.00
9289;BME280;4683;50.864;12.086;2023-07-31T10:33:02;98641.81;;;22.21;100.00
9289;BME280;4683;50.864;12.086;2023-07-31T10:35:31;98646.38;;;22.82;100.00
9289;BME280;4683;50.864;12.086;2023-07-31T10:38:10;98646.66;;;23.01;100.00
9289;BME280;4683;50.864;12.086;2023-07-31T10:40:39;98640.22;;;22.97;100.00
9289;BME280;4683;50.864;12.086;2023-07-31T10:43:08;98635.13;;;22.49;100.00
9289;BME280;4683;50.864;12.086;2023-07-31T10:45:43;98633.75;;;22.83;100.00
9289;BME280;4683;50.864;12.086;2023-07-31T10:48:14;98633.22;;;22.55;100.00
9289;BME280;4683;50.864;12.086;2023-07-31T10:50:49;98625.94;;;22.71;100.00
9289;BME280;4683;50.864;12.086;2023-07-31T10:53:26;98624.38;;;22.54;100.00
9289;BME280;4683;50.864;12.086;2023-07-31T10:55:59;98623.25;;;22.86;100.00
9289;BME280;4683;50.864;12.086;2023-07-31T10:58:27;98624.63;;;22.68;100.00
9289;BME280;4683;50.864;12.086;2023-07-31T11:00:59;98634.59;;;22.63;100.00
9289;BME280;4683;50.864;12.086;2023-07-31T11:03:41;98625.44;;;22.53;100.00
9289;BME280;4683;50.864;12.086;2023-07-31T11:06:10;98616.84;;;22.41;100.00
9289;BME280;4683;50.864;12.086;2023-07-31T11:08:43;98619.47;;;22.87;100.00
9289;BME280;4683;50.864;12.086;2023-07-31T11:11:15;98620.53;;;23.12;100.00
9289;BME280;4683;50.864;12.086;2023-07-31T11:13:46;98603.34;;;22.92;100.00
9289;BME280;4683;50.864;12.086;2023-07-31T11:16:19;98608.41;;;23.14;100.00
9289;BME280;4683;50.864;12.086;2023-07-31T11:18:48;98612.00;;;22.89;100.00
9289;BME280;4683;50.864;12.086;2023-07-31T11:21:19;98589.34;;;23.06;100.00
9289;BME280;4683;50.864;12.086;2023-07-31T11:23:49;98603.91;;;22.94;100.00
9289;BME280;4683;50.864;12.086;2023-07-31T11:26:18;98589.28;;;23.26;100.00
9289;BME280;4683;50.864;12.086;2023-07-31T11:28:48;98592.28;;;22.89;100.00
9289;BME280;4683;50.864;12.086;2023-07-31T11:31:18;98592.59;;;22.87;100.00
9289;BME280;4683;50.864;12.086;2023-07-31T11:33:47;98582.91;;;22.91;100.00
9289;BME280;4683;50.864;12.086;2023-07-31T11:36:19;98580.75;;;22.93;100.00
9289;BME280;4683;50.864;12.086;2023-07-31T11:38:48;98565.09;;;23.11;100.00
9289;BME280;4683;50.864;12.086;2023-07-31T11:41:17;98564.47;;;23.34;100.00
9289;BME280;4683;50.864;12.086;2023-07-31T11:43:46;98564.06;;;23.61;100.00
9289;BME280;4683;50.864;12.086;2023-07-31T11:46:15;98582.84;;;23.12;100.00
9289;BME280;4683;50.864;12.086;2023-07-31T11:48:46;98578.34;;;22.82;100.00
9289;BME280;4683;50.864;12.086;2023-07-31T11:51:15;98575.66;;;22.76;100.00
9289;BME280;4683;50.864;12.086;2023-07-31T11:53:45;98573.75;;;22.82;100.00
9289;BME280;4683;50.864;12.086;2023-07-31T11:56:18;98581.81;;;22.87;100.00
9289;BME280;4683;50.864;12.086;2023-07-31T11:58:49;98574.53;;;23.13;100.00
9289;BME280;4683;50.864;12.086;2023-07-31T12:01:20;98562.66;;;23.14;100.00
9289;BME280;4683;50.864;12.086;2023-07-31T12:03:51;98569.94;;;23.14;100.00
9289;BME280;4683;50.864;12.086;2023-07-31T12:06:20;98566.56;;;23.47;100.00
9289;BME280;4683;50.864;12.086;2023-07-31T12:08:50;98560.09;;;23.43;100.00
9289;BME280;4683;50.864;12.086;2023-07-31T12:11:18;98556.31;;;23.49;100.00
9289;BME280;4683;50.864;12.086;2023-07-31T12:13:47;98556.00;;;23.56;100.00
9289;BME280;4683;50.864;12.086;2023-07-31T12:16:15;98547.63;;;23.63;100.00
9289;BME280;4683;50.864;12.086;2023-07-31T12:18:43;98551.47;;;23.51;100.00
9289;BME280;4683;50.864;12.086;2023-07-31T12:21:13;98552.81;;;23.54;100.00
9289;BME280;4683;50.864;12.086;2023-07-31T12:23:44;98550.59;;;23.01;100.00
9289;BME280;4683;50.864;12.086;2023-07-31T12:26:15;98551.53;;;23.36;100.00
9289;BME280;4683;50.864;12.086;2023-07-31T12:28:45;98548.31;;;23.34;100.00
9289;BME280;4683;50.864;12.086;2023-07-31T12:31:14;98540.91;;;23.65;100.00
9289;BME280;4683;50.864;12.086;2023-07-31T12:33:46;98525.16;;;23.33;100.00
9289;BME280;4683;50.864;12.086;2023-07-31T12:36:18;98534.69;;;23.10;100.00
9289;BME280;4683;50.864;12.086;2023-07-31T12:38:47;98539.47;;;23.28;100.00
9289;BME280;4683;50.864;12.086;2023-07-31T12:41:15;98535.81;;;22.84;100.00
9289;BME280;4683;50.864;12.086;2023-07-31T12:43:45;98530.16;;;23.00;100.00
9289;BME280;4683;50.864;12.086;2023-07-31T12:46:13;98517.91;;;23.34;100.00
9289;BME280;4683;50.864;12.086;2023-07-31T12:48:44;98523.25;;;23.44;100.00
9289;BME280;4683;50.864;12.086;2023-07-31T12:51:19;98519.50;;;23.84;100.00
9289;BME280;4683;50.864;12.086;2023-07-31T12:53:49;98527.56;;;23.84;100.00
9289;BME280;4683;50.864;12.086;2023-07-31T12:56:17;98512.13;;;24.00;100.00
9289;BME280;4683;50.864;12.086;2023-07-31T12:58:45;98503.38;;;23.79;100.00
9289;BME280;4683;50.864;12.086;2023-07-31T13:01:13;98501.41;;;23.90;100.00
9289;BME280;4683;50.864;12.086;2023-07-31T13:03:42;98503.66;;;24.12;100.00
9289;BME280;4683;50.864;12.086;2023-07-31T13:06:11;98508.47;;;23.86;100.00
9289;BME280;4683;50.864;12.086;2023-07-31T13:08:41;98499.34;;;23.32;100.00
9289;BME280;4683;50.864;12.086;2023-07-31T13:11:09;98492.72;;;23.09;100.00
9289;BME280;4683;50.864;12.086;2023-07-31T13:13:37;98509.22;;;22.77;100.00
9289;BME280;4683;50.864;12.086;2023-07-31T13:16:06;98498.28;;;22.53;100.00